sensor_id;sensor_type;location;lat;lon;timestamp;P1;durP1;ratioP1;P2;durP2;ratioP2
43098;SDS011;28715;51.988;6.020;2023-05-10T00:02:04;0.47;;;0.30;;
43098;SDS011;28715;51.988;6.020;2023-05-10T00:04:29;3.60;;;1.00;;
43098;SDS011;28715;51.988;6.020;2023-05-10T00:06:55;1.67;;;1.53;;
43098;SDS011;28715;51.988;6.020;2023-05-10T00:09:20;1.07;;;0.90;;
43098;SDS011;28715;51.988;6.020;2023-05-10T00:11:46;1.60;;;0.70;;
43098;SDS011;28715;51.988;6.020;2023-05-10T00:14:11;2.17;;;0.50;;
43098;SDS011;28715;51.988;6.020;2023-05-10T00:16:37;2.27;;;1.70;;
43098;SDS011;28715;51.988;6.020;2023-05-10T00:19:02;3.20;;;1.13;;
43098;SDS011;28715;51.988;6.020;2023-05-10T00:21:28;2.07;;;1.30;;
43098;SDS011;28715;51.988;6.020;2023-05-10T00:23:54;6.03;;;1.80;;
43098;SDS011;28715;51.988;6.020;2023-05-10T00:26:19;2.97;;;1.17;;
43098;SDS011;28715;51.988;6.020;2023-05-10T00:28:45;1.27;;;1.10;;
43098;SDS011;28715;51.988;6.020;2023-05-10T00:31:11;0.73;;;0.50;;
43098;SDS011;28715;51.988;6.020;2023-05-10T00:33:36;1.30;;;1.00;;
43098;SDS011;28715;51.988;6.020;2023-05-10T00:36:02;2.83;;;1.77;;
43098;SDS011;28715;51.988;6.020;2023-05-10T00:38:28;6.28;;;1.75;;
43098;SDS011;28715;51.988;6.020;2023-05-10T00:40:54;3.43;;;1.73;;
43098;SDS011;28715;51.988;6.020;2023-05-10T00:43:19;3.73;;;1.50;;
43098;SDS011;28715;51.988;6.020;2023-05-10T00:45:45;1.30;;;1.20;;
43098;SDS011;28715;51.988;6.020;2023-05-10T00:48:11;1.60;;;1.30;;
43098;SDS011;28715;51.988;6.020;2023-05-10T00:50:37;4.27;;;2.33;;
43098;SDS011;28715;51.988;6.020;2023-05-10T00:53:04;3.05;;;0.77;;
43098;SDS011;28715;51.988;6.020;2023-05-10T00:55:31;5.22;;;2.33;;
43098;SDS011;28715;51.988;6.020;2023-05-10T00:57:56;3.77;;;1.87;;
43098;SDS011;28715;51.988;6.020;2023-05-10T01:00:22;2.83;;;1.90;;
43098;SDS011;28715;51.988;6.020;2023-05-10T01:02:48;4.10;;;2.13;;
43098;SDS011;28715;51.988;6.020;2023-05-10T01:05:14;3.17;;;1.88;;
43098;SDS011;28715;51.988;6.020;2023-05-10T01:07:40;19.27;;;2.35;;
43098;SDS011;28715;51.988;6.020;2023-05-10T01:10:06;2.60;;;1.27;;
43098;SDS011;28715;51.988;6.020;2023-05-10T01:12:37;7.88;;;2.88;;
43098;SDS011;28715;51.988;6.020;2023-05-10T01:15:05;5.60;;;3.20;;
43098;SDS011;28715;51.988;6.020;2023-05-10T01:17:32;3.25;;;2.05;;
43098;SDS011;28715;51.988;6.020;2023-05-10T01:20:00;3.67;;;2.80;;
43098;SDS011;28715;51.988;6.020;2023-05-10T01:22:31;2.10;;;1.33;;
43098;SDS011;28715;51.988;6.020;2023-05-10T01:30:18;5.90;;;3.08;;
43098;SDS011;28715;51.988;6.020;2023-05-10T01:41:24;7.15;;;3.17;;
43098;SDS011;28715;51.988;6.020;2023-05-10T01:44:04;8.35;;;3.28;;
43098;SDS011;28715;51.988;6.020;2023-05-10T01:46:35;7.55;;;2.63;;
43098;SDS011;28715;51.988;6.020;2023-05-10T01:49:03;6.70;;;2.92;;
43098;SDS011;28715;51.988;6.020;2023-05-10T01:51:39;7.30;;;3.90;;
43098;SDS011;28715;51.988;6.020;2023-05-10T01:54:09;6.55;;;3.75;;
43098;SDS011;28715;51.988;6.020;2023-05-10T01:56:38;10.48;;;3.33;;
43098;SDS011;28715;51.988;6.020;2023-05-10T01:59:06;4.85;;;2.13;;
43098;SDS011;28715;51.988;6.020;2023-05-10T02:01:37;5.90;;;3.25;;
43098;SDS011;28715;51.988;6.020;2023-05-10T02:04:04;4.75;;;2.22;;
43098;SDS011;28715;51.988;6.020;2023-05-10T02:06:33;4.57;;;2.25;;
43098;SDS011;28715;51.988;6.020;2023-05-10T02:09:01;6.05;;;2.85;;
43098;SDS011;28715;51.988;6.020;2023-05-10T02:11:28;1.48;;;0.95;;
43098;SDS011;28715;51.988;6.020;2023-05-10T02:13:55;13.13;;;3.22;;
43098;SDS011;28715;51.988;6.020;2023-05-10T02:16:23;7.65;;;3.40;;
43098;SDS011;28715;51.988;6.020;2023-05-10T02:18:51;6.43;;;3.78;;
43098;SDS011;28715;51.988;6.020;2023-05-10T02:21:19;4.95;;;3.22;;
43098;SDS011;28715;51.988;6.020;2023-05-10T02:23:46;4.38;;;2.40;;
43098;SDS011;28715;51.988;6.020;2023-05-10T02:26:14;3.38;;;2.28;;
43098;SDS011;28715;51.988;6.020;2023-05-10T02:28:41;5.97;;;2.70;;
43098;SDS011;28715;51.988;6.020;2023-05-10T02:31:08;6.20;;;1.98;;
43098;SDS011;28715;51.988;6.020;2023-05-10T02:33:35;5.05;;;2.03;;
43098;SDS011;28715;51.988;6.020;2023-05-10T02:36:03;2.75;;;2.42;;
43098;SDS011;28715;51.988;6.020;2023-05-10T02:38:30;2.45;;;1.65;;
43098;SDS011;28715;51.988;6.020;2023-05-10T02:40:58;7.32;;;2.72;;
43098;SDS011;28715;51.988;6.020;2023-05-10T02:43:25;6.28;;;2.33;;
43098;SDS011;28715;51.988;6.020;2023-05-10T02:45:51;9.67;;;2.87;;
43098;SDS011;28715;51.988;6.020;2023-05-10T02:48:16;3.87;;;2.17;;
43098;SDS011;28715;51.988;6.020;2023-05-10T02:50:45;5.27;;;2.30;;
43098;SDS011;28715;51.988;6.020;2023-05-10T02:53:18;3.17;;;2.15;;
43098;SDS011;28715;51.988;6.020;2023-05-10T02:55:48;2.17;;;1.65;;
43098;SDS011;28715;51.988;6.020;2023-05-10T03:00:44;5.38;;;3.55;;
43098;SDS011;28715;51.988;6.020;2023-05-10T03:03:10;6.13;;;2.65;;
43098;SDS011;28715;51.988;6.020;2023-05-10T03:05:35;2.13;;;1.77;;
43098;SDS011;28715;51.988;6.020;2023-05-10T03:08:01;8.10;;;2.73;;
43098;SDS011;28715;51.988;6.020;2023-05-10T03:10:29;6.32;;;2.55;;
43098;SDS011;28715;51.988;6.020;2023-05-10T03:15:47;2.60;;;2.15;;
43098;SDS011;28715;51.988;6.020;2023-05-10T03:20:53;2.90;;;2.50;;
43098;SDS011;28715;51.988;6.020;2023-05-10T03:23:27;4.88;;;3.17;;
43098;SDS011;28715;51.988;6.020;2023-05-10T03:25:58;6.82;;;2.70;;
43098;SDS011;28715;51.988;6.020;2023-05-10T03:28:27;6.32;;;2.88;;
43098;SDS011;28715;51.988;6.020;2023-05-10T03:30:55;4.63;;;3.30;;
43098;SDS011;28715;51.988;6.020;2023-05-10T03:35:47;3.97;;;3.07;;
43098;SDS011;28715;51.988;6.020;2023-05-10T03:38:13;3.17;;;2.60;;
43098;SDS011;28715;51.988;6.020;2023-05-10T03:40:39;1.83;;;1.57;;
43098;SDS011;28715;51.988;6.020;2023-05-10T03:43:04;2.73;;;2.13;;
43098;SDS011;28715;51.988;6.020;2023-05-10T03:45:30;3.43;;;2.70;;
43098;SDS011;28715;51.988;6.020;2023-05-10T03:47:56;5.53;;;2.53;;
43098;SDS011;28715;51.988;6.020;2023-05-10T03:50:23;3.33;;;2.33;;
43098;SDS011;28715;51.988;6.020;2023-05-10T03:52:48;6.53;;;4.03;;
43098;SDS011;28715;51.988;6.020;2023-05-10T03:55:14;6.77;;;5.03;;
43098;SDS011;28715;51.988;6.020;2023-05-10T03:57:40;17.93;;;4.27;;
43098;SDS011;28715;51.988;6.020;2023-05-10T04:00:05;10.83;;;4.63;;
43098;SDS011;28715;51.988;6.020;2023-05-10T04:02:31;2.22;;;1.23;;
43098;SDS011;28715;51.988;6.020;2023-05-10T04:04:57;7.87;;;2.67;;
43098;SDS011;28715;51.988;6.020;2023-05-10T04:07:22;8.33;;;3.57;;
43098;SDS011;28715;51.988;6.020;2023-05-10T04:09:48;11.73;;;5.28;;
43098;SDS011;28715;51.988;6.020;2023-05-10T04:12:14;3.40;;;2.57;;
43098;SDS011;28715;51.988;6.020;2023-05-10T04:14:39;4.70;;;3.03;;
43098;SDS011;28715;51.988;6.020;2023-05-10T04:17:05;19.80;;;3.17;;
43098;SDS011;28715;51.988;6.020;2023-05-10T04:19:31;8.83;;;4.10;;
43098;SDS011;28715;51.988;6.020;2023-05-10T04:21:57;11.03;;;4.90;;
43098;SDS011;28715;51.988;6.020;2023-05-10T04:24:23;10.48;;;1.83;;
43098;SDS011;28715;51.988;6.020;2023-05-10T04:26:49;3.93;;;2.30;;
43098;SDS011;28715;51.988;6.020;2023-05-10T04:29:14;5.87;;;4.77;;
43098;SDS011;28715;51.988;6.020;2023-05-10T04:31:40;2.30;;;2.10;;
43098;SDS011;28715;51.988;6.020;2023-05-10T04:34:05;2.50;;;1.97;;
43098;SDS011;28715;51.988;6.020;2023-05-10T04:36:31;8.00;;;3.90;;
43098;SDS011;28715;51.988;6.020;2023-05-10T04:39:01;6.85;;;2.60;;
43098;SDS011;28715;51.988;6.020;2023-05-10T04:41:30;10.73;;;4.28;;
43098;SDS011;28715;51.988;6.020;2023-05-10T04:43:56;2.47;;;1.87;;
43098;SDS011;28715;51.988;6.020;2023-05-10T04:46:21;2.23;;;1.97;;
43098;SDS011;28715;51.988;6.020;2023-05-10T04:48:47;5.90;;;3.20;;
43098;SDS011;28715;51.988;6.020;2023-05-10T04:51:12;3.27;;;2.10;;
43098;SDS011;28715;51.988;6.020;2023-05-10T04:53:38;9.87;;;2.67;;
43098;SDS011;28715;51.988;6.020;2023-05-10T04:56:04;4.23;;;2.00;;
43098;SDS011;28715;51.988;6.020;2023-05-10T04:58:30;3.50;;;2.07;;
43098;SDS011;28715;51.988;6.020;2023-05-10T05:00:55;2.17;;;1.93;;
43098;SDS011;28715;51.988;6.020;2023-05-10T05:03:21;2.03;;;0.97;;
43098;SDS011;28715;51.988;6.020;2023-05-10T05:05:47;5.10;;;2.57;;
43098;SDS011;28715;51.988;6.020;2023-05-10T05:08:12;6.57;;;2.53;;
43098;SDS011;28715;51.988;6.020;2023-05-10T05:10:38;6.67;;;4.07;;
43098;SDS011;28715;51.988;6.020;2023-05-10T05:13:03;8.67;;;3.70;;
43098;SDS011;28715;51.988;6.020;2023-05-10T05:15:29;21.50;;;3.93;;
43098;SDS011;28715;51.988;6.020;2023-05-10T05:17:55;12.98;;;3.75;;
43098;SDS011;28715;51.988;6.020;2023-05-10T05:20:21;5.93;;;1.77;;
43098;SDS011;28715;51.988;6.020;2023-05-10T05:22:47;5.40;;;4.00;;
43098;SDS011;28715;51.988;6.020;2023-05-10T05:25:12;9.00;;;2.77;;
43098;SDS011;28715;51.988;6.020;2023-05-10T05:27:38;17.07;;;3.90;;
43098;SDS011;28715;51.988;6.020;2023-05-10T05:30:04;4.73;;;2.83;;
43098;SDS011;28715;51.988;6.020;2023-05-10T05:32:30;15.00;;;3.15;;
43098;SDS011;28715;51.988;6.020;2023-05-10T05:34:55;6.37;;;1.97;;
43098;SDS011;28715;51.988;6.020;2023-05-10T05:37:21;9.53;;;1.87;;
43098;SDS011;28715;51.988;6.020;2023-05-10T05:39:47;3.40;;;2.42;;
43098;SDS011;28715;51.988;6.020;2023-05-10T05:42:13;9.67;;;3.60;;
43098;SDS011;28715;51.988;6.020;2023-05-10T05:44:39;3.65;;;2.92;;
43098;SDS011;28715;51.988;6.020;2023-05-10T05:47:05;7.40;;;2.10;;
43098;SDS011;28715;51.988;6.020;2023-05-10T05:49:31;5.70;;;3.53;;
43098;SDS011;28715;51.988;6.020;2023-05-10T05:52:00;5.65;;;0.95;;
43098;SDS011;28715;51.988;6.020;2023-05-10T05:54:27;3.60;;;1.98;;
43098;SDS011;28715;51.988;6.020;2023-05-10T05:56:56;23.27;;;2.97;;
43098;SDS011;28715;51.988;6.020;2023-05-10T05:59:22;13.30;;;3.45;;
43098;SDS011;28715;51.988;6.020;2023-05-10T06:01:48;6.30;;;3.10;;
43098;SDS011;28715;51.988;6.020;2023-05-10T06:04:14;4.33;;;2.67;;
43098;SDS011;28715;51.988;6.020;2023-05-10T06:06:39;14.00;;;4.93;;
43098;SDS011;28715;51.988;6.020;2023-05-10T06:09:05;4.97;;;2.63;;
43098;SDS011;28715;51.988;6.020;2023-05-10T06:11:31;2.30;;;1.90;;
43098;SDS011;28715;51.988;6.020;2023-05-10T06:13:59;1.92;;;1.50;;
43098;SDS011;28715;51.988;6.020;2023-05-10T06:16:25;3.90;;;2.57;;
43098;SDS011;28715;51.988;6.020;2023-05-10T06:18:51;4.10;;;3.23;;
43098;SDS011;28715;51.988;6.020;2023-05-10T06:21:16;12.30;;;3.27;;
43098;SDS011;28715;51.988;6.020;2023-05-10T06:23:42;3.83;;;2.33;;
43098;SDS011;28715;51.988;6.020;2023-05-10T06:26:08;6.40;;;2.35;;
43098;SDS011;28715;51.988;6.020;2023-05-10T06:28:34;6.77;;;3.60;;
43098;SDS011;28715;51.988;6.020;2023-05-10T06:31:00;5.37;;;2.87;;
43098;SDS011;28715;51.988;6.020;2023-05-10T06:33:26;4.53;;;2.97;;
43098;SDS011;28715;51.988;6.020;2023-05-10T06:35:52;9.50;;;2.30;;
43098;SDS011;28715;51.988;6.020;2023-05-10T06:38:18;2.43;;;2.23;;
43098;SDS011;28715;51.988;6.020;2023-05-10T06:40:43;5.47;;;2.03;;
43098;SDS011;28715;51.988;6.020;2023-05-10T06:43:09;3.57;;;1.43;;
43098;SDS011;28715;51.988;6.020;2023-05-10T06:45:34;4.30;;;2.17;;
43098;SDS011;28715;51.988;6.020;2023-05-10T06:48:00;4.33;;;1.57;;
43098;SDS011;28715;51.988;6.020;2023-05-10T06:50:26;6.13;;;2.90;;
43098;SDS011;28715;51.988;6.020;2023-05-10T06:52:52;14.40;;;2.90;;
43098;SDS011;28715;51.988;6.020;2023-05-10T06:55:17;11.30;;;2.57;;
43098;SDS011;28715;51.988;6.020;2023-05-10T06:57:43;3.10;;;1.80;;
43098;SDS011;28715;51.988;6.020;2023-05-10T07:00:08;10.80;;;2.90;;
43098;SDS011;28715;51.988;6.020;2023-05-10T07:02:35;34.83;;;4.05;;
43098;SDS011;28715;51.988;6.020;2023-05-10T07:05:00;6.20;;;3.47;;
43098;SDS011;28715;51.988;6.020;2023-05-10T07:07:27;5.20;;;1.65;;
43098;SDS011;28715;51.988;6.020;2023-05-10T07:09:52;13.83;;;2.10;;
43098;SDS011;28715;51.988;6.020;2023-05-10T07:12:18;4.30;;;2.63;;
43098;SDS011;28715;51.988;6.020;2023-05-10T07:14:44;2.43;;;2.00;;
43098;SDS011;28715;51.988;6.020;2023-05-10T07:17:10;3.53;;;2.03;;
43098;SDS011;28715;51.988;6.020;2023-05-10T07:19:36;3.97;;;2.60;;
43098;SDS011;28715;51.988;6.020;2023-05-10T07:22:01;5.03;;;2.23;;
43098;SDS011;28715;51.988;6.020;2023-05-10T07:24:27;3.47;;;2.60;;
43098;SDS011;28715;51.988;6.020;2023-05-10T07:26:52;6.83;;;3.83;;
43098;SDS011;28715;51.988;6.020;2023-05-10T07:29:18;7.63;;;3.10;;
43098;SDS011;28715;51.988;6.020;2023-05-10T07:31:43;5.27;;;3.80;;
43098;SDS011;28715;51.988;6.020;2023-05-10T07:34:09;4.90;;;2.70;;
43098;SDS011;28715;51.988;6.020;2023-05-10T07:36:35;3.67;;;2.87;;
43098;SDS011;28715;51.988;6.020;2023-05-10T07:39:01;4.57;;;1.75;;
43098;SDS011;28715;51.988;6.020;2023-05-10T07:41:27;5.87;;;2.83;;
43098;SDS011;28715;51.988;6.020;2023-05-10T07:43:53;3.90;;;3.20;;
43098;SDS011;28715;51.988;6.020;2023-05-10T07:46:18;15.27;;;3.43;;
43098;SDS011;28715;51.988;6.020;2023-05-10T07:48:44;6.20;;;4.60;;
43098;SDS011;28715;51.988;6.020;2023-05-10T07:51:10;9.43;;;4.23;;
43098;SDS011;28715;51.988;6.020;2023-05-10T07:53:36;4.23;;;2.53;;
43098;SDS011;28715;51.988;6.020;2023-05-10T07:58:45;8.73;;;3.77;;
43098;SDS011;28715;51.988;6.020;2023-05-10T08:01:11;6.73;;;3.23;;
43098;SDS011;28715;51.988;6.020;2023-05-10T08:03:37;18.00;;;4.37;;
43098;SDS011;28715;51.988;6.020;2023-05-10T08:06:02;10.60;;;3.90;;
43098;SDS011;28715;51.988;6.020;2023-05-10T08:08:28;6.80;;;3.57;;
43098;SDS011;28715;51.988;6.020;2023-05-10T08:10:53;3.90;;;2.13;;
43098;SDS011;28715;51.988;6.020;2023-05-10T08:13:19;6.67;;;2.27;;
43098;SDS011;28715;51.988;6.020;2023-05-10T08:15:46;4.93;;;2.97;;
43098;SDS011;28715;51.988;6.020;2023-05-10T08:18:12;7.27;;;4.03;;
43098;SDS011;28715;51.988;6.020;2023-05-10T08:20:38;4.33;;;1.77;;
43098;SDS011;28715;51.988;6.020;2023-05-10T08:23:03;4.07;;;2.37;;
43098;SDS011;28715;51.988;6.020;2023-05-10T08:25:29;5.33;;;2.63;;
43098;SDS011;28715;51.988;6.020;2023-05-10T08:27:54;13.03;;;3.70;;
43098;SDS011;28715;51.988;6.020;2023-05-10T08:30:20;4.43;;;2.30;;
43098;SDS011;28715;51.988;6.020;2023-05-10T08:32:46;9.37;;;3.17;;
43098;SDS011;28715;51.988;6.020;2023-05-10T08:35:11;5.80;;;2.27;;
43098;SDS011;28715;51.988;6.020;2023-05-10T08:37:37;5.30;;;2.23;;
43098;SDS011;28715;51.988;6.020;2023-05-10T08:40:02;1.77;;;1.67;;
43098;SDS011;28715;51.988;6.020;2023-05-10T08:42:28;3.03;;;2.00;;
43098;SDS011;28715;51.988;6.020;2023-05-10T08:44:59;1.90;;;1.60;;
43098;SDS011;28715;51.988;6.020;2023-05-10T08:47:25;4.33;;;2.13;;
43098;SDS011;28715;51.988;6.020;2023-05-10T08:49:51;5.03;;;3.57;;
43098;SDS011;28715;51.988;6.020;2023-05-10T08:52:17;2.40;;;0.97;;
43098;SDS011;28715;51.988;6.020;2023-05-10T08:54:43;8.50;;;2.73;;
43098;SDS011;28715;51.988;6.020;2023-05-10T08:57:09;1.17;;;1.10;;
43098;SDS011;28715;51.988;6.020;2023-05-10T08:59:35;6.57;;;1.97;;
43098;SDS011;28715;51.988;6.020;2023-05-10T09:02:04;1.65;;;1.02;;
43098;SDS011;28715;51.988;6.020;2023-05-10T09:04:30;3.07;;;1.83;;
43098;SDS011;28715;51.988;6.020;2023-05-10T09:06:56;2.60;;;1.47;;
43098;SDS011;28715;51.988;6.020;2023-05-10T09:09:22;1.13;;;0.43;;
43098;SDS011;28715;51.988;6.020;2023-05-10T09:11:50;3.07;;;2.10;;
43098;SDS011;28715;51.988;6.020;2023-05-10T09:14:17;3.40;;;2.30;;
43098;SDS011;28715;51.988;6.020;2023-05-10T09:16:44;3.73;;;2.53;;
43098;SDS011;28715;51.988;6.020;2023-05-10T09:19:10;1.60;;;1.03;;
43098;SDS011;28715;51.988;6.020;2023-05-10T09:21:36;3.30;;;2.23;;
43098;SDS011;28715;51.988;6.020;2023-05-10T09:24:05;2.88;;;2.65;;
43098;SDS011;28715;51.988;6.020;2023-05-10T09:26:32;3.20;;;1.33;;
43098;SDS011;28715;51.988;6.020;2023-05-10T09:28:58;2.63;;;1.70;;
43098;SDS011;28715;51.988;6.020;2023-05-10T09:31:42;1.37;;;0.67;;
43098;SDS011;28715;51.988;6.020;2023-05-10T09:34:11;4.20;;;2.90;;
43098;SDS011;28715;51.988;6.020;2023-05-10T09:39:15;3.63;;;1.77;;
43098;SDS011;28715;51.988;6.020;2023-05-10T09:41:41;2.13;;;1.13;;
43098;SDS011;28715;51.988;6.020;2023-05-10T09:44:07;4.27;;;1.53;;
43098;SDS011;28715;51.988;6.020;2023-05-10T09:46:36;1.83;;;1.00;;
43098;SDS011;28715;51.988;6.020;2023-05-10T09:49:02;1.02;;;0.60;;
43098;SDS011;28715;51.988;6.020;2023-05-10T09:51:27;0.00;;;0.00;;
43098;SDS011;28715;51.988;6.020;2023-05-10T09:56:38;1.10;;;0.73;;
43098;SDS011;28715;51.988;6.020;2023-05-10T09:59:05;1.47;;;0.50;;
43098;SDS011;28715;51.988;6.020;2023-05-10T10:01:31;0.53;;;0.27;;
43098;SDS011;28715;51.988;6.020;2023-05-10T10:03:58;0.47;;;0.33;;
43098;SDS011;28715;51.988;6.020;2023-05-10T10:06:24;1.83;;;0.83;;
43098;SDS011;28715;51.988;6.020;2023-05-10T10:08:50;1.30;;;0.20;;
43098;SDS011;28715;51.988;6.020;2023-05-10T10:11:17;2.80;;;0.53;;
43098;SDS011;28715;51.988;6.020;2023-05-10T10:13:43;1.50;;;1.10;;
43098;SDS011;28715;51.988;6.020;2023-05-10T10:16:09;1.73;;;0.97;;
43098;SDS011;28715;51.988;6.020;2023-05-10T10:18:35;2.23;;;1.00;;
43098;SDS011;28715;51.988;6.020;2023-05-10T10:21:05;1.87;;;0.97;;
43098;SDS011;28715;51.988;6.020;2023-05-10T10:23:33;1.30;;;0.83;;
43098;SDS011;28715;51.988;6.020;2023-05-10T10:26:00;0.63;;;0.63;;
43098;SDS011;28715;51.988;6.020;2023-05-10T10:31:20;3.00;;;1.30;;
43098;SDS011;28715;51.988;6.020;2023-05-10T10:34:07;1.83;;;0.67;;
43098;SDS011;28715;51.988;6.020;2023-05-10T10:36:47;6.03;;;1.23;;
43098;SDS011;28715;51.988;6.020;2023-05-10T10:39:13;0.90;;;0.50;;
43098;SDS011;28715;51.988;6.020;2023-05-10T10:41:40;4.43;;;0.60;;
43098;SDS011;28715;51.988;6.020;2023-05-10T10:49:34;3.57;;;0.47;;
43098;SDS011;28715;51.988;6.020;2023-05-10T10:54:51;7.87;;;1.07;;
43098;SDS011;28715;51.988;6.020;2023-05-10T10:57:18;0.77;;;0.40;;
43098;SDS011;28715;51.988;6.020;2023-05-10T10:59:44;0.83;;;0.47;;
43098;SDS011;28715;51.988;6.020;2023-05-10T11:05:00;2.67;;;1.30;;
43098;SDS011;28715;51.988;6.020;2023-05-10T11:07:56;0.37;;;0.37;;
43098;SDS011;28715;51.988;6.020;2023-05-10T11:10:23;1.53;;;1.03;;
43098;SDS011;28715;51.988;6.020;2023-05-10T11:12:53;5.20;;;0.70;;
43098;SDS011;28715;51.988;6.020;2023-05-10T11:18:00;2.10;;;0.47;;
43098;SDS011;28715;51.988;6.020;2023-05-10T11:20:43;1.70;;;1.23;;
43098;SDS011;28715;51.988;6.020;2023-05-10T11:23:13;2.07;;;0.83;;
43098;SDS011;28715;51.988;6.020;2023-05-10T11:25:43;1.80;;;0.53;;
43098;SDS011;28715;51.988;6.020;2023-05-10T11:28:10;2.10;;;1.90;;
43098;SDS011;28715;51.988;6.020;2023-05-10T11:30:40;0.83;;;0.73;;
43098;SDS011;28715;51.988;6.020;2023-05-10T11:33:08;0.60;;;0.53;;
43098;SDS011;28715;51.988;6.020;2023-05-10T11:35:38;0.83;;;0.63;;
43098;SDS011;28715;51.988;6.020;2023-05-10T11:38:13;1.70;;;1.30;;
43098;SDS011;28715;51.988;6.020;2023-05-10T11:40:39;0.47;;;0.40;;
43098;SDS011;28715;51.988;6.020;2023-05-10T11:43:05;1.97;;;1.07;;
43098;SDS011;28715;51.988;6.020;2023-05-10T11:45:33;0.53;;;0.30;;
43098;SDS011;28715;51.988;6.020;2023-05-10T11:47:59;1.17;;;0.70;;
43098;SDS011;28715;51.988;6.020;2023-05-10T11:50:25;0.47;;;0.37;;
43098;SDS011;28715;51.988;6.020;2023-05-10T11:52:52;2.17;;;0.70;;
43098;SDS011;28715;51.988;6.020;2023-05-10T11:55:19;3.17;;;0.97;;
43098;SDS011;28715;51.988;6.020;2023-05-10T11:57:44;0.77;;;0.63;;
43098;SDS011;28715;51.988;6.020;2023-05-10T12:00:11;2.53;;;0.47;;
43098;SDS011;28715;51.988;6.020;2023-05-10T12:02:39;0.73;;;0.40;;
43098;SDS011;28715;51.988;6.020;2023-05-10T12:05:05;1.30;;;0.50;;
43098;SDS011;28715;51.988;6.020;2023-05-10T12:07:31;0.60;;;0.60;;
43098;SDS011;28715;51.988;6.020;2023-05-10T12:10:04;1.60;;;0.77;;
43098;SDS011;28715;51.988;6.020;2023-05-10T12:12:44;0.77;;;0.60;;
43098;SDS011;28715;51.988;6.020;2023-05-10T12:15:20;2.53;;;0.50;;
43098;SDS011;28715;51.988;6.020;2023-05-10T12:17:47;0.30;;;0.30;;
43098;SDS011;28715;51.988;6.020;2023-05-10T12:22:39;7.37;;;1.13;;
43098;SDS011;28715;51.988;6.020;2023-05-10T12:25:05;1.50;;;1.00;;
43098;SDS011;28715;51.988;6.020;2023-05-10T12:27:33;0.10;;;0.10;;
43098;SDS011;28715;51.988;6.020;2023-05-10T12:29:59;1.20;;;0.63;;
43098;SDS011;28715;51.988;6.020;2023-05-10T12:32:43;0.37;;;0.33;;
43098;SDS011;28715;51.988;6.020;2023-05-10T12:35:09;0.60;;;0.57;;
43098;SDS011;28715;51.988;6.020;2023-05-10T12:37:35;0.37;;;0.30;;
43098;SDS011;28715;51.988;6.020;2023-05-10T12:40:05;0.00;;;0.00;;
43098;SDS011;28715;51.988;6.020;2023-05-10T12:42:31;0.70;;;0.23;;
43098;SDS011;28715;51.988;6.020;2023-05-10T12:44:57;2.57;;;0.70;;
43098;SDS011;28715;51.988;6.020;2023-05-10T12:47:22;0.57;;;0.57;;
43098;SDS011;28715;51.988;6.020;2023-05-10T12:49:48;3.07;;;1.53;;
43098;SDS011;28715;51.988;6.020;2023-05-10T12:52:13;1.03;;;0.20;;
43098;SDS011;28715;51.988;6.020;2023-05-10T12:54:39;0.23;;;0.10;;
43098;SDS011;28715;51.988;6.020;2023-05-10T12:57:05;3.10;;;0.73;;
43098;SDS011;28715;51.988;6.020;2023-05-10T12:59:30;3.30;;;0.40;;
43098;SDS011;28715;51.988;6.020;2023-05-10T13:01:57;1.17;;;0.73;;
43098;SDS011;28715;51.988;6.020;2023-05-10T13:04:22;0.97;;;0.70;;
43098;SDS011;28715;51.988;6.020;2023-05-10T13:06:48;0.63;;;0.50;;
43098;SDS011;28715;51.988;6.020;2023-05-10T13:09:13;0.93;;;0.43;;
43098;SDS011;28715;51.988;6.020;2023-05-10T13:11:40;2.53;;;0.37;;
43098;SDS011;28715;51.988;6.020;2023-05-10T13:14:05;0.30;;;0.30;;
43098;SDS011;28715;51.988;6.020;2023-05-10T13:16:31;0.27;;;0.27;;
43098;SDS011;28715;51.988;6.020;2023-05-10T13:18:56;0.00;;;0.00;;
43098;SDS011;28715;51.988;6.020;2023-05-10T13:21:23;4.90;;;0.30;;
43098;SDS011;28715;51.988;6.020;2023-05-10T13:23:50;0.20;;;0.20;;
43098;SDS011;28715;51.988;6.020;2023-05-10T13:26:15;0.40;;;0.20;;
43098;SDS011;28715;51.988;6.020;2023-05-10T13:28:41;1.90;;;0.30;;
43098;SDS011;28715;51.988;6.020;2023-05-10T13:31:07;0.23;;;0.23;;
43098;SDS011;28715;51.988;6.020;2023-05-10T13:33:32;1.37;;;0.60;;
43098;SDS011;28715;51.988;6.020;2023-05-10T13:35:58;0.80;;;0.53;;
43098;SDS011;28715;51.988;6.020;2023-05-10T13:38:23;0.67;;;0.67;;
43098;SDS011;28715;51.988;6.020;2023-05-10T13:40:49;0.90;;;0.53;;
43098;SDS011;28715;51.988;6.020;2023-05-10T13:43:17;0.93;;;0.40;;
43098;SDS011;28715;51.988;6.020;2023-05-10T13:45:43;1.03;;;0.93;;
43098;SDS011;28715;51.988;6.020;2023-05-10T13:48:09;2.33;;;0.67;;
43098;SDS011;28715;51.988;6.020;2023-05-10T13:50:34;0.57;;;0.07;;
43098;SDS011;28715;51.988;6.020;2023-05-10T13:53:00;0.27;;;0.10;;
43098;SDS011;28715;51.988;6.020;2023-05-10T13:55:25;7.83;;;0.60;;
43098;SDS011;28715;51.988;6.020;2023-05-10T13:57:51;0.30;;;0.30;;
43098;SDS011;28715;51.988;6.020;2023-05-10T14:00:17;0.93;;;0.47;;
43098;SDS011;28715;51.988;6.020;2023-05-10T14:02:42;2.30;;;0.50;;
43098;SDS011;28715;51.988;6.020;2023-05-10T14:05:08;0.77;;;0.47;;
43098;SDS011;28715;51.988;6.020;2023-05-10T14:07:34;1.93;;;0.77;;
43098;SDS011;28715;51.988;6.020;2023-05-10T14:09:59;2.03;;;1.03;;
43098;SDS011;28715;51.988;6.020;2023-05-10T14:12:25;2.40;;;1.07;;
43098;SDS011;28715;51.988;6.020;2023-05-10T14:14:51;0.73;;;0.43;;
43098;SDS011;28715;51.988;6.020;2023-05-10T14:17:17;1.50;;;0.53;;
43098;SDS011;28715;51.988;6.020;2023-05-10T14:19:43;4.67;;;0.57;;
43098;SDS011;28715;51.988;6.020;2023-05-10T14:22:09;1.33;;;0.67;;
43098;SDS011;28715;51.988;6.020;2023-05-10T14:24:35;0.53;;;0.40;;
43098;SDS011;28715;51.988;6.020;2023-05-10T14:27:00;2.73;;;1.43;;
43098;SDS011;28715;51.988;6.020;2023-05-10T14:29:26;1.80;;;0.63;;
43098;SDS011;28715;51.988;6.020;2023-05-10T14:31:52;1.90;;;0.63;;
43098;SDS011;28715;51.988;6.020;2023-05-10T14:34:17;1.43;;;0.87;;
43098;SDS011;28715;51.988;6.020;2023-05-10T14:36:43;1.20;;;0.73;;
43098;SDS011;28715;51.988;6.020;2023-05-10T14:39:08;4.27;;;1.20;;
43098;SDS011;28715;51.988;6.020;2023-05-10T14:41:35;0.37;;;0.23;;
43098;SDS011;28715;51.988;6.020;2023-05-10T14:44:00;1.80;;;0.40;;
43098;SDS011;28715;51.988;6.020;2023-05-10T14:46:28;1.03;;;0.73;;
43098;SDS011;28715;51.988;6.020;2023-05-10T14:48:54;2.07;;;1.53;;
43098;SDS011;28715;51.988;6.020;2023-05-10T14:51:20;2.07;;;1.13;;
43098;SDS011;28715;51.988;6.020;2023-05-10T14:53:47;0.43;;;0.30;;
43098;SDS011;28715;51.988;6.020;2023-05-10T14:56:14;1.40;;;0.83;;
43098;SDS011;28715;51.988;6.020;2023-05-10T14:58:39;1.13;;;0.60;;
43098;SDS011;28715;51.988;6.020;2023-05-10T15:01:05;1.47;;;0.60;;
43098;SDS011;28715;51.988;6.020;2023-05-10T15:03:30;0.43;;;0.30;;
43098;SDS011;28715;51.988;6.020;2023-05-10T15:05:56;3.90;;;0.57;;
43098;SDS011;28715;51.988;6.020;2023-05-10T15:08:22;2.17;;;0.77;;
43098;SDS011;28715;51.988;6.020;2023-05-10T15:10:49;0.10;;;0.10;;
43098;SDS011;28715;51.988;6.020;2023-05-10T15:13:15;0.10;;;0.10;;
43098;SDS011;28715;51.988;6.020;2023-05-10T15:15:41;0.67;;;0.40;;
43098;SDS011;28715;51.988;6.020;2023-05-10T15:18:08;1.13;;;0.50;;
43098;SDS011;28715;51.988;6.020;2023-05-10T15:20:34;0.27;;;0.20;;
43098;SDS011;28715;51.988;6.020;2023-05-10T15:23:00;0.13;;;0.07;;
43098;SDS011;28715;51.988;6.020;2023-05-10T15:25:25;0.23;;;0.17;;
43098;SDS011;28715;51.988;6.020;2023-05-10T15:27:52;0.57;;;0.40;;
43098;SDS011;28715;51.988;6.020;2023-05-10T15:30:18;1.53;;;0.43;;
43098;SDS011;28715;51.988;6.020;2023-05-10T15:32:43;0.40;;;0.17;;
43098;SDS011;28715;51.988;6.020;2023-05-10T15:35:09;0.47;;;0.27;;